Time;durP1;ratioP1;P1;durP2;ratioP2;P2;SDS_P1;SDS_P2;PMS_P1;PMS_P2;Temp;Humidity;BMP_temperature;BMP_pressure;BME280_temperature;BME280_humidity;BME280_pressure;Samples;Min_cycle;Max_cycle;Signal;HPM_P1;HPM_P2
2023/10/26 00:02:36;;;;;;;;;22.20;21.20;;;;;13.14;100.00;97069.13;6212122;28;98411;-69
2023/10/26 00:05:40;;;;;;;;;22.40;22.40;;;;;13.13;100.00;97059.41;6211793;28;96675;-69
2023/10/26 00:08:43;;;;;;;;;26.00;25.00;;;;;13.25;100.00;97062.53;6210864;28;96516;-69
2023/10/26 00:11:49;;;;;;;;;27.00;25.60;;;;;13.30;100.00;97065.19;6213451;28;96653;-69
2023/10/26 00:14:52;;;;;;;;;27.00;25.00;;;;;13.29;100.00;97069.81;6228209;28;96413;-69
2023/10/26 00:17:57;;;;;;;;;39.80;33.00;;;;;13.33;100.00;97070.88;6212234;28;96465;-69
2023/10/26 00:21:01;;;;;;;;;33.40;30.00;;;;;13.37;100.00;97063.00;6213117;28;96526;-69
2023/10/26 00:24:05;;;;;;;;;31.50;28.50;;;;;13.43;100.00;97064.56;6212050;28;96442;-70
2023/10/26 00:27:10;;;;;;;;;30.00;27.33;;;;;13.49;100.00;97055.28;6211712;28;96355;-70
2023/10/26 00:30:13;;;;;;;;;29.60;28.00;;;;;13.55;100.00;97048.75;6210559;28;96481;-69
2023/10/26 00:33:17;;;;;;;;;27.00;25.00;;;;;13.60;100.00;97040.56;6211693;28;96646;-70
2023/10/26 00:36:20;;;;;;;;;25.20;23.60;;;;;13.57;100.00;97041.16;6203329;28;96339;-69
2023/10/26 00:39:24;;;;;;;;;31.00;29.00;;;;;13.66;100.00;97046.75;6186588;28;96653;-70
2023/10/26 00:42:28;;;;;;;;;29.50;27.75;;;;;13.68;100.00;97045.34;6187074;28;96410;-70
2023/10/26 00:45:36;;;;;;;;;33.00;30.60;;;;;13.70;100.00;97042.38;6228082;27;96607;-70
2023/10/26 00:48:39;;;;;;;;;29.00;28.00;;;;;13.73;100.00;97045.31;6213414;28;96256;-70
2023/10/26 00:51:45;;;;;;;;;28.25;27.25;;;;;13.73;100.00;97036.41;6188797;28;96237;-70
2023/10/26 00:54:48;;;;;;;;;23.25;23.00;;;;;13.72;100.00;97040.19;6204696;28;97836;-69
2023/10/26 00:57:53;;;;;;;;;22.40;22.00;;;;;13.66;100.00;97044.84;6212443;28;96385;-70
2023/10/26 01:00:56;;;;;;;;;25.00;22.00;;;;;13.62;100.00;97046.53;6213032;28;96465;-70
2023/10/26 01:04:01;;;;;;;;;25.80;23.80;;;;;13.61;100.00;97050.31;6223233;22;97961;-67
2023/10/26 01:07:04;;;;;;;;;21.00;20.00;;;;;13.63;100.00;97050.84;6216464;28;97304;-67
2023/10/26 01:10:08;;;;;;;;;20.50;19.50;;;;;13.57;100.00;97051.97;6235491;28;96758;-68
2023/10/26 01:13:14;;;;;;;;;23.00;22.75;;;;;13.43;100.00;97056.44;6235045;28;96701;-67
2023/10/26 01:16:18;;;;;;;;;22.25;21.75;;;;;13.43;100.00;97048.31;6218525;28;96651;-65
2023/10/26 01:19:21;;;;;;;;;21.40;19.40;;;;;13.43;100.00;97043.72;6219341;28;96665;-68
2023/10/26 01:22:30;;;;;;;;;30.00;27.00;;;;;13.44;100.00;97033.69;6251779;27;96608;-67
2023/10/26 01:25:33;;;;;;;;;24.75;23.00;;;;;13.41;100.00;97035.06;6236917;28;96332;-67
2023/10/26 01:28:36;;;;;;;;;23.20;22.20;;;;;13.42;100.00;97038.59;6252141;27;96414;-67
2023/10/26 01:31:40;;;;;;;;;24.00;22.20;;;;;13.40;100.00;97038.06;6234912;28;98416;-68
2023/10/26 01:34:44;;;;;;;;;23.75;21.25;;;;;13.36;100.00;97015.34;6232322;27;97451;-67
2023/10/26 01:37:49;;;;;;;;;23.00;23.00;;;;;13.42;100.00;97017.75;6234707;27;96970;-67
2023/10/26 01:40:52;;;;;;;;;24.40;23.80;;;;;13.45;100.00;97027.19;6232688;28;96803;-67
2023/10/26 01:43:56;;;;;;;;;22.60;22.00;;;;;13.45;100.00;97028.00;6233131;28;96908;-67
2023/10/26 01:46:59;;;;;;;;;23.40;22.40;;;;;13.44;100.00;97020.16;6234089;28;97583;-67
2023/10/26 01:50:02;;;;;;;;;27.80;26.40;;;;;13.43;100.00;97016.66;6246335;27;96714;-67
2023/10/26 01:53:06;;;;;;;;;26.00;24.00;;;;;13.44;100.00;97017.44;6232909;28;96669;-67
2023/10/26 01:56:09;;;;;;;;;26.80;25.40;;;;;13.33;100.00;97010.53;6236033;28;96502;-67
2023/10/26 01:59:13;;;;;;;;;26.33;24.33;;;;;13.27;100.00;97004.34;6234874;28;96621;-67
2023/10/26 02:02:16;;;;;;;;;26.00;23.40;;;;;13.26;100.00;97001.91;6236184;28;96323;-68
2023/10/26 02:05:19;;;;;;;;;29.00;28.00;;;;;13.26;100.00;96999.22;6239108;28;96328;-68
2023/10/26 02:08:24;;;;;;;;;26.60;26.60;;;;;13.20;100.00;97003.84;6218469;28;97026;-67
2023/10/26 02:11:27;;;;;;;;;28.60;24.00;;;;;13.14;100.00;97002.31;6239010;28;96533;-68
2023/10/26 02:14:30;;;;;;;;;27.00;25.40;;;;;13.16;100.00;96988.47;6238597;28;96637;-67
2023/10/26 02:17:33;;;;;;;;;30.00;27.40;;;;;13.17;100.00;96979.28;6240322;27;97138;-61
2023/10/26 02:20:36;;;;;;;;;33.40;30.00;;;;;13.24;100.00;96971.66;6241599;28;97003;-60
2023/10/26 02:23:41;;;;;;;;;34.40;30.40;;;;;13.22;100.00;96968.41;6242374;27;96503;-61
2023/10/26 02:26:44;;;;;;;;;33.40;29.60;;;;;13.19;100.00;96966.28;6242443;28;96380;-61
2023/10/26 02:29:49;;;;;;;;;30.00;27.00;;;;;13.22;100.00;96961.09;6241276;28;96295;-60
2023/10/26 02:32:52;;;;;;;;;38.60;34.60;;;;;13.23;100.00;96961.91;6238247;28;97016;-60
2023/10/26 02:35:57;;;;;;;;;36.40;32.00;;;;;13.28;100.00;96961.88;6242913;27;96431;-60
2023/10/26 02:39:02;;;;;;;;;41.80;33.80;;;;;13.30;100.00;96962.38;6239250;28;96462;-60
2023/10/26 02:42:05;;;;;;;;;35.80;31.00;;;;;13.34;100.00;96958.03;6241612;28;96600;-60
2023/10/26 02:45:09;;;;;;;;;35.00;30.75;;;;;13.34;100.00;96955.31;6240024;28;96760;-61
2023/10/26 02:48:13;;;;;;;;;37.00;31.50;;;;;13.37;100.00;96949.31;6204652;28;96828;-61
2023/10/26 02:51:16;;;;;;;;;37.40;31.60;;;;;13.35;100.00;96940.66;6216998;28;96787;-60
2023/10/26 02:54:21;;;;;;;;;38.40;33.40;;;;;13.38;100.00;96929.28;6233377;28;96832;-60
2023/10/26 02:57:24;;;;;;;;;37.25;31.00;;;;;13.35;100.00;96925.25;6240979;28;96316;-60
2023/10/26 03:00:27;;;;;;;;;35.00;32.40;;;;;13.40;100.00;96927.91;6238984;27;96569;-60
2023/10/26 03:03:30;;;;;;;;;37.00;32.40;;;;;13.43;100.00;96923.81;6237011;28;96920;-61
2023/10/26 03:06:37;;;;;;;;;33.00;30.00;;;;;13.45;100.00;96922.44;6237823;27;96714;-62
2023/10/26 03:09:41;;;;;;;;;33.20;30.40;;;;;13.48;100.00;96920.25;6240280;28;97688;-61
2023/10/26 03:12:46;;;;;;;;;42.25;35.75;;;;;13.50;100.00;96916.16;6240189;27;96610;-61
2023/10/26 03:15:50;;;;;;;;;36.00;30.33;;;;;13.55;100.00;96923.41;6239143;28;96805;-61
2023/10/26 03:18:53;;;;;;;;;30.00;29.00;;;;;13.49;100.00;96911.81;6238953;28;96310;-60
2023/10/26 03:21:56;;;;;;;;;31.40;29.20;;;;;13.45;100.00;96902.66;6235147;28;99008;-61
2023/10/26 03:25:01;;;;;;;;;33.00;29.20;;;;;13.44;100.00;96892.94;6237683;28;96676;-61
2023/10/26 03:28:04;;;;;;;;;34.00;30.80;;;;;13.40;100.00;96902.72;6237974;28;96531;-67
2023/10/26 03:31:11;;;;;;;;;34.20;31.00;;;;;13.35;100.00;96908.19;6227967;28;96481;-67
2023/10/26 03:34:15;;;;;;;;;31.40;28.40;;;;;13.33;100.00;96915.81;6236404;27;97301;-67
2023/10/26 03:37:18;;;;;;;;;30.00;28.50;;;;;13.36;100.00;96915.22;6237034;28;96910;-67
2023/10/26 03:40:22;;;;;;;;;29.00;28.00;;;;;13.34;100.00;96912.78;6234172;28;97107;-66
2023/10/26 03:43:25;;;;;;;;;32.00;26.20;;;;;13.34;100.00;96920.91;6235023;28;96984;-66
2023/10/26 03:46:28;;;;;;;;;32.80;30.00;;;;;13.35;100.00;96927.13;6230906;28;97827;-66
2023/10/26 03:49:32;;;;;;;;;28.20;27.20;;;;;13.39;100.00;96926.28;6233017;28;96648;-66
2023/10/26 03:52:35;;;;;;;;;29.60;27.60;;;;;13.43;100.00;96902.97;6234163;28;96988;-67
2023/10/26 03:55:40;;;;;;;;;27.50;25.50;;;;;13.53;100.00;96912.06;6235328;28;98430;-67
2023/10/26 03:58:43;;;;;;;;;25.75;24.50;;;;;13.56;100.00;96909.59;6239519;27;96395;-67
2023/10/26 04:01:46;;;;;;;;;23.80;20.80;;;;;13.59;100.00;96903.59;6239481;28;96618;-67
2023/10/26 04:04:50;;;;;;;;;26.00;25.00;;;;;13.62;100.00;96903.03;6236321;28;97046;-68
2023/10/26 04:07:56;;;;;;;;;29.00;26.40;;;;;13.65;100.00;96905.16;6238351;28;96526;-68
2023/10/26 04:11:00;;;;;;;;;31.40;29.40;;;;;13.67;100.00;96902.97;6253960;27;96420;-68
2023/10/26 04:14:03;;;;;;;;;29.60;26.00;;;;;13.68;100.00;96907.25;6239129;28;96940;-68
2023/10/26 04:17:07;;;;;;;;;28.25;26.00;;;;;13.62;100.00;96903.03;6233711;28;97417;-68
2023/10/26 04:20:11;;;;;;;;;30.40;28.80;;;;;13.59;100.00;96900.88;6233845;28;97018;-66
2023/10/26 04:23:14;;;;;;;;;23.80;21.80;;;;;13.54;100.00;96892.81;6229594;28;97439;-68
2023/10/26 04:26:20;;;;;;;;;33.40;30.40;;;;;13.49;100.00;96884.75;6235148;27;96629;-68
2023/10/26 04:29:24;;;;;;;;;29.50;26.50;;;;;13.49;100.00;96868.50;6237628;27;96322;-66
2023/10/26 04:32:27;;;;;;;;;33.00;31.00;;;;;13.39;100.00;96877.56;6234783;28;96365;-68
2023/10/26 04:35:30;;;;;;;;;32.20;30.00;;;;;13.37;100.00;96887.06;6235958;28;97113;-68
2023/10/26 04:38:34;;;;;;;;;26.40;24.00;;;;;13.40;100.00;96911.66;6230704;28;96554;-67
2023/10/26 04:41:38;;;;;;;;;23.60;22.60;;;;;13.44;100.00;96920.81;6234545;27;97599;-67
2023/10/26 04:44:41;;;;;;;;;28.00;26.00;;;;;13.51;100.00;96919.66;6217237;28;97350;-67
2023/10/26 04:47:45;;;;;;;;;30.00;27.50;;;;;13.57;100.00;96915.81;6221843;28;96890;-68
2023/10/26 04:50:48;;;;;;;;;28.20;27.60;;;;;13.64;100.00;96913.53;6227447;28;96510;-68
2023/10/26 04:53:51;;;;;;;;;28.80;27.60;;;;;13.71;100.00;96911.31;6246019;27;96571;-67
2023/10/26 04:56:57;;;;;;;;;32.60;30.00;;;;;13.72;100.00;96902.91;6240321;27;97755;-68
2023/10/26 05:00:00;;;;;;;;;28.00;26.00;;;;;13.79;100.00;96916.06;6252848;27;96510;-68
2023/10/26 05:03:03;;;;;;;;;29.60;28.00;;;;;13.74;100.00;96916.94;6235913;27;96312;-67
2023/10/26 05:06:07;;;;;;;;;25.75;25.00;;;;;13.68;100.00;96907.25;6234097;27;96521;-68
2023/10/26 05:09:10;;;;;;;;;26.50;25.50;;;;;13.64;100.00;96908.13;6231518;28;96240;-68
2023/10/26 05:12:15;;;;;;;;;33.50;30.50;;;;;13.61;100.00;96914.94;6234231;28;96651;-67
2023/10/26 05:15:19;;;;;;;;;29.80;26.80;;;;;13.61;100.00;96906.00;6249360;27;96421;-67
2023/10/26 05:18:22;;;;;;;;;37.60;33.40;;;;;13.58;100.00;96915.53;6228205;28;96668;-67
2023/10/26 05:21:25;;;;;;;;;37.40;32.00;;;;;13.54;100.00;96916.38;6234120;27;96591;-68
2023/10/26 05:24:28;;;;;;;;;32.40;30.00;;;;;13.56;100.00;96909.59;6232697;28;96638;-67
2023/10/26 05:27:33;;;;;;;;;38.40;33.00;;;;;13.62;100.00;96918.47;6235695;27;97000;-68
2023/10/26 05:30:39;;;;;;;;;31.80;28.60;;;;;13.68;100.00;96928.91;6236555;28;96388;-68
2023/10/26 05:33:42;;;;;;;;;30.00;28.00;;;;;13.76;100.00;96939.13;6231140;28;97400;-66
2023/10/26 05:36:45;;;;;;;;;34.50;31.25;;;;;13.79;100.00;96962.09;6215673;28;96756;-68
2023/10/26 05:39:48;;;;;;;;;34.50;30.00;;;;;13.77;100.00;96972.44;6234927;28;96771;-67
2023/10/26 05:42:53;;;;;;;;;34.20;32.00;;;;;13.80;100.00;96972.66;6238898;27;96346;-68
2023/10/26 05:46:02;;;;;;;;;31.80;29.80;;;;;13.72;100.00;96953.53;6236538;28;96350;-68
2023/10/26 05:49:06;;;;;;;;;31.60;30.00;;;;;13.79;100.00;96943.16;6238100;28;96501;-67
2023/10/26 05:52:09;;;;;;;;;32.50;29.00;;;;;13.78;100.00;96941.56;6234894;28;96518;-67
2023/10/26 05:55:12;;;;;;;;;32.00;27.50;;;;;13.77;100.00;96938.03;6237644;28;97088;-68
2023/10/26 05:58:16;;;;;;;;;31.80;29.80;;;;;13.78;100.00;96926.09;6237974;28;96689;-68
2023/10/26 06:01:19;;;;;;;;;28.75;27.75;;;;;13.83;100.00;96923.31;6239149;28;96255;-67
2023/10/26 06:04:23;;;;;;;;;31.00;28.60;;;;;13.87;100.00;96935.22;6238604;28;98464;-68
2023/10/26 06:07:26;;;;;;;;;29.60;27.00;;;;;13.88;100.00;96942.22;6239188;28;97290;-68
2023/10/26 06:10:29;;;;;;;;;29.60;27.00;;;;;14.01;100.00;96940.72;6236982;28;97393;-68
2023/10/26 06:13:33;;;;;;;;;25.00;23.50;;;;;14.13;100.00;96951.13;6238122;28;97143;-68
2023/10/26 06:16:36;;;;;;;;;26.20;23.40;;;;;14.27;100.00;96954.72;6246386;27;96439;-67
2023/10/26 06:19:39;;;;;;;;;22.80;21.00;;;;;14.40;100.00;96954.03;6226629;28;97149;-68
2023/10/26 06:22:42;;;;;;;;;21.20;18.60;;;;;14.53;100.00;96952.50;6240453;28;97046;-68
2023/10/26 06:25:45;;;;;;;;;22.60;21.20;;;;;14.64;100.00;96948.53;6222310;28;98421;-68
2023/10/26 06:28:50;;;;;;;;;21.20;18.20;;;;;14.76;100.00;96951.59;6221216;28;97874;-68
2023/10/26 06:31:53;;;;;;;;;16.40;16.40;;;;;14.83;100.00;96932.22;6237802;28;97095;-68
2023/10/26 06:34:56;;;;;;;;;14.60;14.40;;;;;14.97;100.00;96919.50;6235798;27;96719;-68
2023/10/26 06:37:59;;;;;;;;;15.20;13.80;;;;;15.06;100.00;96912.28;6237298;28;96843;-68
2023/10/26 06:41:03;;;;;;;;;15.80;14.20;;;;;15.17;100.00;96898.25;6221352;28;96393;-68
2023/10/26 06:44:07;;;;;;;;;16.00;16.00;;;;;15.26;100.00;96871.22;6236302;28;97004;-68
2023/10/26 06:47:10;;;;;;;;;18.00;17.60;;;;;15.26;100.00;96867.69;6239356;27;96496;-68
2023/10/26 06:50:13;;;;;;;;;15.00;13.00;;;;;15.24;100.00;96872.63;6239045;27;96554;-67
2023/10/26 06:53:16;;;;;;;;;16.00;15.00;;;;;15.31;100.00;96881.97;6239706;27;96681;-68
2023/10/26 06:56:19;;;;;;;;;10.20;10.20;;;;;15.41;100.00;96880.97;6239490;28;96263;-68
2023/10/26 06:59:24;;;;;;;;;14.60;13.60;;;;;15.51;100.00;96886.25;6238804;28;98375;-68
2023/10/26 07:02:27;;;;;;;;;10.00;10.00;;;;;15.59;100.00;96874.66;6237338;28;96654;-68
2023/10/26 07:05:30;;;;;;;;;12.00;11.00;;;;;15.76;100.00;96882.22;6238854;28;96310;-68
2023/10/26 07:08:33;;;;;;;;;13.00;12.00;;;;;15.91;100.00;96887.31;6239551;28;96577;-67
2023/10/26 07:11:37;;;;;;;;;9.75;8.75;;;;;16.00;100.00;96888.22;6238123;28;96254;-68
2023/10/26 07:14:42;;;;;;;;;9.50;8.00;;;;;16.14;100.00;96886.28;6233842;27;96279;-68
2023/10/26 07:17:45;;;;;;;;;7.40;7.40;;;;;16.25;100.00;96879.50;6220097;28;96702;-68
2023/10/26 07:20:49;;;;;;;;;6.00;5.50;;;;;16.36;100.00;96874.63;6237910;28;96560;-68
2023/10/26 07:23:53;;;;;;;;;6.00;6.00;;;;;16.47;100.00;96876.78;6240237;28;96353;-68
2023/10/26 07:26:56;;;;;;;;;8.40;7.00;;;;;16.58;100.00;96888.28;6237590;28;96502;-68
2023/10/26 07:30:01;;;;;;;;;6.40;6.00;;;;;16.67;100.00;96880.16;6217285;28;96887;-68
2023/10/26 07:33:06;;;;;;;;;8.00;7.00;;;;;16.79;100.00;96885.88;6234176;28;96797;-68
2023/10/26 07:36:10;;;;;;;;;8.50;8.50;;;;;16.84;100.00;96880.31;6234523;28;96535;-68
2023/10/26 07:39:14;;;;;;;;;5.00;5.00;;;;;16.84;100.00;96875.66;6235564;28;96745;-68
2023/10/26 07:42:37;;;;;;;;;5.00;5.00;;;;;16.95;100.00;96867.25;6236989;28;96594;-68
2023/10/26 07:45:41;;;;;;;;;8.40;8.40;;;;;17.03;100.00;96883.63;6234437;28;98390;-68
2023/10/26 07:48:45;;;;;;;;;9.00;8.67;;;;;17.08;100.00;96869.88;6217922;28;96644;-67
2023/10/26 07:51:49;;;;;;;;;6.20;6.20;;;;;17.12;100.00;96875.50;6236564;28;96338;-67
2023/10/26 07:54:52;;;;;;;;;11.00;10.00;;;;;17.18;100.00;96882.41;6237339;28;97905;-68
2023/10/26 07:57:55;;;;;;;;;11.00;10.00;;;;;17.22;100.00;96877.94;6238537;28;96536;-68
2023/10/26 08:01:00;;;;;;;;;10.00;8.60;;;;;17.27;100.00;96864.19;6220589;28;98451;-68
2023/10/26 08:04:03;;;;;;;;;11.00;11.00;;;;;17.29;100.00;96870.16;6220157;28;96755;-69
2023/10/26 08:07:06;;;;;;;;;9.00;9.00;;;;;17.30;100.00;96866.28;6238352;28;96963;-68
2023/10/26 08:10:10;;;;;;;;;9.00;9.00;;;;;17.28;100.00;96872.06;6237287;28;98598;-68
2023/10/26 08:13:13;;;;;;;;;10.00;10.00;;;;;17.28;100.00;96880.22;6236587;28;96628;-68
2023/10/26 08:16:19;;;;;;;;;9.80;9.20;;;;;17.31;100.00;96889.69;6236901;28;98402;-68
2023/10/26 08:19:42;;;;;;;;;10.00;9.75;;;;;17.37;100.00;96907.50;6236968;28;98723;-68
2023/10/26 08:22:45;;;;;;;;;8.60;8.00;;;;;17.42;100.00;96896.47;6236962;28;96897;-68
2023/10/26 08:26:07;;;;;;;;;15.00;14.00;;;;;17.55;100.00;96900.19;6238941;28;96262;-68
2023/10/26 08:29:10;;;;;;;;;13.00;13.00;;;;;17.66;100.00;96902.38;6237777;28;96696;-68
2023/10/26 08:32:28;;;;;;;;;14.00;13.00;;;;;17.77;100.00;96889.25;6238603;28;96285;-68
2023/10/26 08:35:31;;;;;;;;;13.80;13.80;;;;;17.88;100.00;96881.59;6236590;28;96979;-68
2023/10/26 08:38:34;;;;;;;;;18.00;16.00;;;;;17.94;100.00;96874.84;6238554;28;96450;-68
2023/10/26 08:41:37;;;;;;;;;11.60;11.00;;;;;17.93;100.00;96878.72;6236283;28;96568;-68
2023/10/26 08:44:42;;;;;;;;;11.00;10.00;;;;;17.94;100.00;96866.69;6216056;28;98475;-68
2023/10/26 08:47:49;;;;;;;;;11.20;10.20;;;;;17.96;100.00;96864.44;6236636;28;99419;-68
2023/10/26 08:50:52;;;;;;;;;9.80;9.00;;;;;18.09;100.00;96866.22;6237457;27;96703;-68
2023/10/26 08:53:56;;;;;;;;;11.80;10.80;;;;;18.15;100.00;96875.88;6236217;28;96834;-68
2023/10/26 08:57:07;;;;;;;;;10.00;9.00;;;;;18.19;100.00;96872.19;6237566;28;96597;-68
2023/10/26 09:00:11;;;;;;;;;8.00;7.00;;;;;18.32;100.00;96875.09;6219779;28;96675;-68
2023/10/26 09:03:16;;;;;;;;;7.20;7.20;;;;;18.36;100.00;96878.78;6237293;28;96323;-68
2023/10/26 09:06:19;;;;;;;;;6.40;6.40;;;;;18.39;100.00;96876.19;6218852;28;96655;-69
2023/10/26 09:09:22;;;;;;;;;5.00;5.00;;;;;18.50;100.00;96874.75;6237465;27;96298;-68
2023/10/26 09:12:25;;;;;;;;;7.00;6.20;;;;;19.06;100.00;96880.34;6236036;28;96256;-69
2023/10/26 09:15:29;;;;;;;;;6.50;6.00;;;;;19.40;100.00;96872.84;6234718;28;96467;-68
2023/10/26 09:18:34;;;;;;;;;7.00;6.00;;;;;19.83;100.00;96871.88;6219019;28;96646;-63
2023/10/26 09:21:56;;;;;;;;;6.00;5.20;;;;;20.94;100.00;96873.00;6238662;28;97300;-62
2023/10/26 09:25:07;;;;;;;;;3.00;3.00;;;;;21.34;100.00;96867.75;6236517;28;96272;-62
2023/10/26 09:28:12;;;;;;;;;3.50;3.00;;;;;21.32;100.00;96864.53;6240349;28;96129;-63
2023/10/26 09:31:15;;;;;;;;;3.00;3.00;;;;;21.11;100.00;96866.53;6240028;28;96578;-63
2023/10/26 09:34:24;;;;;;;;;3.00;3.00;;;;;20.88;100.00;96866.09;6239829;28;96406;-64
2023/10/26 09:37:28;;;;;;;;;4.50;3.50;;;;;20.75;100.00;96859.81;6237667;28;96406;-64
2023/10/26 09:40:31;;;;;;;;;4.00;4.00;;;;;20.56;100.00;96864.97;6237552;28;96874;-62
2023/10/26 09:43:34;;;;;;;;;3.80;3.00;;;;;20.47;100.00;96863.44;6238111;28;96368;-62
2023/10/26 09:46:38;;;;;;;;;2.25;2.25;;;;;20.32;100.00;96856.63;6239287;27;96584;-62
2023/10/26 09:49:43;;;;;;;;;2.50;2.00;;;;;20.21;100.00;96867.13;6237173;28;96386;-63
2023/10/26 09:52:47;;;;;;;;;3.00;3.00;;;;;20.11;100.00;96856.59;6240804;27;96319;-64
2023/10/26 09:55:51;;;;;;;;;3.00;3.00;;;;;20.14;100.00;96855.09;6241128;28;97061;-62
2023/10/26 09:58:55;;;;;;;;;3.00;2.00;;;;;20.22;100.00;96865.19;6240706;27;96692;-62
2023/10/26 10:01:58;;;;;;;;;3.00;3.00;;;;;20.22;100.00;96854.25;6238539;28;96852;-68
2023/10/26 10:05:04;;;;;;;;;2.00;2.00;;;;;20.67;100.00;96852.44;6238258;28;96364;-69
2023/10/26 10:08:09;;;;;;;;;3.00;3.00;;;;;20.90;100.00;96852.91;6220950;28;96750;-69
2023/10/26 10:11:17;;;;;;;;;2.00;2.00;;;;;20.89;100.00;96851.28;6238777;27;96414;-69
2023/10/26 10:14:57;;;;;;;;;2.00;2.00;;;;;20.71;100.00;96842.44;6239146;28;96338;-68
2023/10/26 10:18:20;;;;;;;;;3.00;3.00;;;;;20.50;100.00;96844.41;6238146;27;96492;-68
2023/10/26 10:21:37;;;;;;;;;1.75;1.75;;;;;20.10;100.00;96827.63;6239203;28;96297;-69
2023/10/26 10:24:54;;;;;;;;;3.00;3.00;;;;;19.94;100.00;96834.03;6239996;28;97291;-69
2023/10/26 10:28:10;;;;;;;;;2.00;2.00;;;;;19.86;100.00;96839.22;6225476;28;97676;-69
2023/10/26 10:31:22;;;;;;;;;2.00;1.40;;;;;19.97;100.00;96841.56;6241084;28;97224;-69
2023/10/26 10:34:30;;;;;;;;;2.40;2.00;;;;;19.94;100.00;96837.53;6240802;27;96471;-69
2023/10/26 10:37:34;;;;;;;;;3.00;3.00;;;;;20.00;100.00;96844.41;6240132;28;96745;-69
2023/10/26 10:40:39;;;;;;;;;2.00;2.00;;;;;20.08;100.00;96840.84;6241292;28;96256;-69
2023/10/26 10:43:44;;;;;;;;;3.00;3.00;;;;;20.24;100.00;96838.28;6232624;27;96560;-69
2023/10/26 10:46:49;;;;;;;;;3.00;3.00;;;;;20.56;100.00;96842.25;6238404;28;98512;-69
2023/10/26 10:49:52;;;;;;;;;2.00;2.00;;;;;21.59;100.00;96830.22;6238202;28;96700;-69
2023/10/26 10:52:56;;;;;;;;;3.00;3.00;;;;;22.96;100.00;96818.22;6256537;27;96592;-69
2023/10/26 10:56:01;;;;;;;;;3.00;3.00;;;;;24.33;100.00;96829.09;6239595;28;96574;-69
2023/10/26 10:59:16;;;;;;;;;2.40;2.00;;;;;25.57;100.00;96828.75;6222101;28;98435;-69
2023/10/26 11:02:20;;;;;;;;;3.00;2.40;;;;;27.04;100.00;96833.22;6238786;28;96873;-69
2023/10/26 11:05:36;;;;;;;;;1.00;1.00;;;;;28.43;95.05;96822.94;6227486;28;96697;-69
2023/10/26 11:08:41;;;;;;;;;1.00;1.00;;;;;29.63;86.21;96833.63;6216487;28;96256;-69
2023/10/26 11:11:44;;;;;;;;;1.00;1.00;;;;;30.67;82.52;96814.88;6214589;28;96777;-69
2023/10/26 11:14:49;;;;;;;;;2.00;2.00;;;;;30.99;77.88;96812.72;6215806;28;96958;-69
2023/10/26 11:17:52;;;;;;;;;1.00;1.00;;;;;30.29;76.21;96809.00;6215459;28;96465;-69
2023/10/26 11:20:55;;;;;;;;;2.00;1.00;;;;;30.23;77.52;96812.59;6215657;28;96758;-69
2023/10/26 11:24:01;;;;;;;;;2.20;2.00;;;;;29.88;78.58;96830.84;6215557;28;96340;-69
2023/10/26 11:27:09;;;;;;;;;2.20;2.20;;;;;29.16;77.89;96814.50;6232226;28;96502;-70
2023/10/26 11:30:12;;;;;;;;;2.00;2.00;;;;;28.06;85.80;96821.47;6240640;28;96309;-69
2023/10/26 11:33:32;;;;;;;;;3.00;2.00;;;;;26.93;92.79;96819.25;6237625;28;96650;-69
2023/10/26 11:36:36;;;;;;;;;2.00;2.00;;;;;26.20;97.02;96826.19;6213148;28;96364;-69
2023/10/26 11:39:49;;;;;;;;;3.40;3.00;;;;;26.47;95.94;96831.72;6213814;28;96680;-64
2023/10/26 11:42:54;;;;;;;;;1.40;1.40;;;;;27.56;89.96;96818.34;6219034;28;96692;-66
2023/10/26 11:45:59;;;;;;;;;3.00;2.00;;;;;28.85;82.26;96829.88;6240901;28;96354;-66
2023/10/26 11:49:04;;;;;;;;;2.00;1.60;;;;;29.83;72.97;96825.69;6240225;27;96528;-65
2023/10/26 11:52:07;;;;;;;;;2.00;2.00;;;;;30.40;64.89;96833.97;6240779;28;96352;-66
2023/10/26 11:55:14;;;;;;;;;2.00;2.00;;;;;30.28;74.57;96842.75;6239319;28;98454;-66
2023/10/26 11:58:18;;;;;;;;;2.00;2.00;;;;;29.11;72.93;96849.00;6242598;28;96860;-65
2023/10/26 12:01:21;;;;;;;;;2.00;2.00;;;;;28.08;79.92;96844.84;6241387;28;96366;-64
2023/10/26 12:04:24;;;;;;;;;2.00;2.00;;;;;27.73;82.40;96833.50;6239622;28;96332;-65
2023/10/26 12:07:27;;;;;;;;;1.60;1.60;;;;;26.88;86.19;96827.13;6243261;28;96329;-63
2023/10/26 12:10:32;;;;;;;;;1.40;1.00;;;;;26.19;90.07;96824.59;6243328;28;96223;-64
2023/10/26 12:13:35;;;;;;;;;3.00;3.00;;;;;25.22;95.72;96800.53;6242924;27;96439;-64
2023/10/26 12:16:38;;;;;;;;;2.00;2.00;;;;;25.41;95.25;96828.84;6243193;27;97008;-64
2023/10/26 12:19:44;;;;;;;;;2.00;1.20;;;;;25.88;93.26;96839.53;6243476;28;96124;-64
2023/10/26 12:22:48;;;;;;;;;2.00;2.00;;;;;25.92;93.22;96825.78;6241170;28;98453;-65
2023/10/26 12:25:53;;;;;;;;;2.00;2.00;;;;;26.22;92.31;96820.31;6243333;28;96936;-65
2023/10/26 12:28:56;;;;;;;;;1.00;1.00;;;;;26.11;87.55;96822.09;6244116;27;97023;-65
2023/10/26 12:31:59;;;;;;;;;2.00;1.00;;;;;26.42;88.86;96826.50;6245330;28;96425;-64
2023/10/26 12:35:03;;;;;;;;;3.00;3.00;;;;;26.79;85.74;96821.84;6242189;28;96996;-65
2023/10/26 12:38:06;;;;;;;;;2.00;2.00;;;;;26.79;82.53;96823.81;6241805;28;96667;-64
2023/10/26 12:41:10;;;;;;;;;1.00;1.00;;;;;26.89;83.26;96837.78;6238620;28;96996;-64
2023/10/26 12:44:15;;;;;;;;;1.00;1.00;;;;;26.01;86.66;96819.97;6242680;28;96565;-65
2023/10/26 12:47:18;;;;;;;;;1.40;1.40;;;;;25.39;90.79;96819.34;6241140;27;96955;-64
2023/10/26 12:50:22;;;;;;;;;1.00;1.00;;;;;24.61;91.22;96826.13;6256289;27;98150;-69
2023/10/26 12:53:25;;;;;;;;;3.00;3.00;;;;;24.18;93.59;96827.19;6239883;27;96814;-68
2023/10/26 12:56:29;;;;;;;;;2.00;1.00;;;;;23.81;96.33;96823.13;6253765;27;96471;-69
2023/10/26 12:59:32;;;;;;;;;2.00;2.00;;;;;23.57;97.93;96826.91;6235238;27;96760;-68
2023/10/26 13:02:36;;;;;;;;;2.00;2.00;;;;;23.41;100.00;96840.59;6223996;28;96469;-68
2023/10/26 13:05:39;;;;;;;;;2.00;2.00;;;;;23.21;100.00;96841.69;6233199;28;96510;-68
2023/10/26 13:08:42;;;;;;;;;2.00;2.00;;;;;23.01;100.00;96834.47;6236900;28;96558;-68
2023/10/26 13:11:47;;;;;;;;;2.20;2.20;;;;;22.76;100.00;96844.78;6235984;28;96701;-68
2023/10/26 13:14:50;;;;;;;;;2.40;2.40;;;;;22.41;100.00;96839.84;6237839;28;96511;-68
2023/10/26 13:18:06;;;;;;;;;1.00;1.00;;;;;22.07;100.00;96839.56;6237847;28;96654;-68
2023/10/26 13:21:10;;;;;;;;;5.00;4.00;;;;;21.99;100.00;96844.06;6224578;28;96309;-68
2023/10/26 13:24:13;;;;;;;;;3.00;2.50;;;;;21.84;100.00;96842.78;6233273;28;96584;-68
2023/10/26 13:27:18;;;;;;;;;1.60;1.00;;;;;21.91;100.00;96836.69;6228689;28;96442;-67
2023/10/26 13:30:21;;;;;;;;;2.40;2.40;;;;;21.84;100.00;96829.06;6236414;28;96368;-68
2023/10/26 13:33:25;;;;;;;;;4.00;3.00;;;;;21.93;100.00;96831.66;6222548;28;98400;-68
2023/10/26 13:36:28;;;;;;;;;2.00;2.00;;;;;22.05;100.00;96820.69;6235917;27;96600;-68
2023/10/26 13:39:31;;;;;;;;;2.25;2.25;;;;;22.30;100.00;96825.00;6233813;28;98577;-68
2023/10/26 13:42:36;;;;;;;;;2.00;2.00;;;;;22.44;100.00;96822.66;6229642;28;97415;-68
2023/10/26 13:45:39;;;;;;;;;2.00;2.00;;;;;22.43;100.00;96817.53;6234416;28;96697;-68
2023/10/26 13:48:42;;;;;;;;;2.00;1.60;;;;;22.52;100.00;96817.38;6235357;28;96830;-67
2023/10/26 13:51:45;;;;;;;;;2.20;2.00;;;;;22.32;100.00;96808.97;6216166;28;98505;-68
2023/10/26 13:54:48;;;;;;;;;1.00;1.00;;;;;22.28;100.00;96834.72;6231233;28;96992;-67
2023/10/26 13:57:53;;;;;;;;;1.80;1.80;;;;;21.96;100.00;96809.84;6230183;27;97654;-67
2023/10/26 14:00:57;;;;;;;;;2.00;1.00;;;;;22.02;100.00;96832.38;6240539;28;96677;-64
2023/10/26 14:04:00;;;;;;;;;3.00;2.50;;;;;21.86;100.00;96823.22;6246287;28;96751;-64
2023/10/26 14:07:04;;;;;;;;;4.50;4.00;;;;;21.84;100.00;96825.50;6248328;28;96966;-63
2023/10/26 14:10:08;;;;;;;;;3.00;3.00;;;;;21.72;100.00;96825.50;6249001;28;96315;-63